Howe Sound: Past 24 Hour Conditions

 

Ballenas Islands

01:00 PM PDT 17 October 2017
Disclaimer

This table is a summary of hourly weather conditions for the past 24 hours.
Please note that these observations might not always be representative of weather conditions over their associated marine area.

Date / Time
(PDT)
Wind(knots) Conditions Visibility(km) Pressure(kPa) Air tempC) Relative humidity(%) Dew pointC)
17 October 2017
13:00 W 8 N/A N/A 101.5 12 77 8
12:00 WNW 11 N/A N/A 101.4 11 80 8
11:00 WNW 13 N/A N/A 101.3 11 83 8
10:00 W 18 N/A N/A 101.1 10 85 8
9:00 WNW 20 N/A N/A 100.9 10 85 7
8:00 WNW 19 gust 25 N/A N/A 100.6 11 90 10
7:00 WSW 21 N/A N/A 100.4 13 88 11
6:00 ESE 10 N/A N/A 100.3 12 92 11
5:00 SE 16 gust 22 N/A N/A 100.4 12 93 11
4:00 ESE 22 gust 27 N/A N/A 100.6 11 94 10
3:00 ESE 24 N/A N/A 100.7 12 90 11
2:00 ESE 22 N/A N/A 100.8 11 94 10
1:00 ESE 27 N/A N/A 101.0 11 95 10
0:00 ESE 27 gust 34 N/A N/A 101.1 11 93 10
16 October 2017
23:00 ESE 33 gust 38 N/A N/A 101.1 11 92 10
22:00 ESE 29 gust 34 N/A N/A 101.3 11 93 10
21:00 ESE 26 gust 32 N/A N/A 101.3 11 92 10
20:00 ESE 24 gust 30 N/A N/A 101.4 11 93 10
19:00 ESE 27 gust 33 N/A N/A 101.5 11 94 10
18:00 ESE 29 gust 34 N/A N/A 101.6 11 93 10
17:00 ESE 28 gust 37 N/A N/A 101.6 11 92 10
16:00 ESE 28 gust 36 N/A N/A 101.7 11 90 10
15:00 ESE 29 N/A N/A 101.7 11 92 10
14:00 ESE 25 gust 32 N/A N/A 101.8 11 93 10
13:00 ESE 22 gust 28 N/A N/A 101.9 11 93 10

Zoom-in to make a selection

Map of Pacific - Georgia Basin marine weather areas Tsawwassen Ferry Terminal Sentry Shoal - 46131 Halibut Bank - 46146 La Perouse Bank - 46206 Discovery Island Esquimalt Harbour Kelp Reefs Malahat Race Rocks Lightstation Saturna Island Sheringham Point University of Victoria Victoria Gonzales Victoria Int'l Airport Ballenas Islands Campbell River Airport Comox Airport Entrance Island Fanny Island Nanaimo Airport Sisters Islets Estevan Point Tofino Airport Grief Point Powell River Airport Sechelt Point Atkinson Sand Heads Lightstation Vancouver Harbour Vancouver Int'l Airport West Vancouver Port Alberni Howe Sound - Pam Rocks Squamish Airport
Legend:
buoy Buoy
land station Land Station

Pacific - Georgia Basin Area

Another Region

What we are doing

Date modified: